createdAt,value
2022-09-15T00:01:52.151Z,99708.47
2022-09-15T00:04:18.555Z,99702.94
2022-09-15T00:06:46.246Z,99707.59
2022-09-15T00:09:12.594Z,99698.16
2022-09-15T00:11:39.040Z,99699.97
2022-09-15T00:14:06.874Z,99694.88
2022-09-15T00:16:34.205Z,99704.69
2022-09-15T00:19:01.095Z,99700.41
2022-09-15T00:21:29.932Z,99698.97
2022-09-15T00:23:58.974Z,99692.81
2022-09-15T00:26:27.320Z,99696.41
2022-09-15T00:28:54.526Z,99698.41
2022-09-15T00:31:23.556Z,99693.34
2022-09-15T00:33:51.930Z,99699.84
2022-09-15T00:36:19.876Z,99704.59
2022-09-15T00:38:46.865Z,99701.72
2022-09-15T00:41:17.392Z,99699.91
2022-09-15T00:43:51.089Z,99711.25
2022-09-15T00:46:19.673Z,99707.00
2022-09-15T00:48:50.840Z,99711.69
2022-09-15T00:51:22.558Z,99709.69
2022-09-15T00:53:49.603Z,99702.78
2022-09-15T00:56:18.311Z,99702.28
2022-09-15T00:58:48.885Z,99711.84
2022-09-15T01:01:16.487Z,99703.84
2022-09-15T01:03:43.542Z,99705.13
2022-09-15T01:06:14.052Z,99714.13
2022-09-15T01:08:44.344Z,99707.09
2022-09-15T01:11:10.903Z,99712.25
2022-09-15T01:13:38.560Z,99711.06
2022-09-15T01:16:14.656Z,99718.09
2022-09-15T01:18:51.277Z,99721.22
2022-09-15T01:21:27.878Z,99728.09
2022-09-15T01:24:32.558Z,99730.34
2022-09-15T01:27:30.550Z,99734.03
2022-09-15T01:30:07.597Z,99726.25
2022-09-15T01:32:43.993Z,99722.78
2022-09-15T01:35:21.884Z,99722.84
2022-09-15T01:37:54.540Z,99725.66
2022-09-15T01:40:24.617Z,99723.94
2022-09-15T01:42:52.456Z,99730.44
2022-09-15T01:45:25.237Z,99729.59
2022-09-15T01:47:54.335Z,99725.84
2022-09-15T01:50:23.400Z,99728.63
2022-09-15T01:52:54.410Z,99718.34
2022-09-15T01:55:26.493Z,99723.69
2022-09-15T01:57:52.916Z,99730.69
2022-09-15T02:00:21.179Z,99728.38
2022-09-15T02:02:52.028Z,99723.94
2022-09-15T02:05:23.008Z,99727.81
2022-09-15T02:07:53.150Z,99725.00
2022-09-15T02:10:25.961Z,99726.09
2022-09-15T02:12:59.079Z,99719.69
2022-09-15T02:15:31.665Z,99716.38
2022-09-15T02:17:58.088Z,99723.06
2022-09-15T02:20:30.031Z,99722.13
2022-09-15T02:23:01.544Z,99718.72
2022-09-15T02:25:33.393Z,99722.59
2022-09-15T02:28:04.211Z,99720.53
2022-09-15T02:30:33.016Z,99715.31
2022-09-15T02:33:04.146Z,99717.09
2022-09-15T02:35:32.674Z,99719.44
2022-09-15T02:37:59.986Z,99716.19
2022-09-15T02:40:28.426Z,99713.75
2022-09-15T02:42:56.848Z,99718.63
2022-09-15T02:45:24.574Z,99713.75
2022-09-15T02:47:52.621Z,99707.00
2022-09-15T02:50:19.978Z,99711.13
2022-09-15T02:52:46.598Z,99712.41
2022-09-15T02:55:12.970Z,99710.75
2022-09-15T02:57:39.321Z,99707.66
2022-09-15T03:00:07.167Z,99706.72
2022-09-15T03:02:33.628Z,99703.38
2022-09-15T03:05:01.321Z,99705.72
2022-09-15T03:07:27.731Z,99709.88
2022-09-15T03:09:54.148Z,99702.66
2022-09-15T03:12:20.573Z,99706.44
2022-09-15T03:14:46.933Z,99703.91
2022-09-15T03:17:13.363Z,99704.63
2022-09-15T03:19:39.719Z,99708.06
2022-09-15T03:22:07.449Z,99705.34
2022-09-15T03:24:33.831Z,99699.31
2022-09-15T03:27:00.277Z,99717.50
2022-09-15T03:29:26.949Z,99717.09
2022-09-15T03:31:53.360Z,99716.72
2022-09-15T03:34:19.811Z,99716.69
2022-09-15T03:36:46.186Z,99716.34
2022-09-15T03:39:13.972Z,99713.66
2022-09-15T03:41:40.789Z,99710.94
2022-09-15T03:44:07.142Z,99711.28
2022-09-15T03:46:33.676Z,99705.78
2022-09-15T03:49:00.008Z,99704.03
2022-09-15T03:51:26.360Z,99712.69
2022-09-15T03:53:52.838Z,99708.28
2022-09-15T03:56:23.735Z,99709.06
2022-09-15T03:58:50.803Z,99699.59
2022-09-15T04:01:17.542Z,99703.66
2022-09-15T04:03:50.122Z,99707.34
2022-09-15T04:06:17.787Z,99701.00
2022-09-15T04:08:44.577Z,99705.31
2022-09-15T04:11:12.330Z,99704.63
2022-09-15T04:13:41.404Z,99705.63
2022-09-15T04:16:09.964Z,99709.00
2022-09-15T04:18:36.742Z,99705.00
2022-09-15T04:21:05.649Z,99707.00
2022-09-15T04:23:32.924Z,99711.13
2022-09-15T04:26:01.167Z,99701.50
2022-09-15T04:28:29.186Z,99705.91
2022-09-15T04:31:05.337Z,99710.59
2022-09-15T04:33:32.156Z,99708.38
2022-09-15T04:35:59.564Z,99706.56
2022-09-15T04:38:25.976Z,99715.38
2022-09-15T04:40:52.384Z,99712.13
2022-09-15T04:43:18.737Z,99717.53
2022-09-15T04:45:45.106Z,99713.72
2022-09-15T04:48:12.843Z,99724.63
2022-09-15T04:50:39.184Z,99717.38
2022-09-15T04:53:05.534Z,99714.19
2022-09-15T04:55:32.415Z,99719.16
2022-09-15T04:57:58.817Z,99721.28
2022-09-15T05:00:25.414Z,99716.44
2022-09-15T05:02:51.796Z,99715.13
2022-09-15T05:05:19.655Z,99713.47
2022-09-15T05:07:47.218Z,99722.56
2022-09-15T05:10:14.041Z,99720.16
2022-09-15T05:12:40.387Z,99725.03
2022-09-15T05:15:08.061Z,99719.41
2022-09-15T05:17:34.808Z,99718.97
2022-09-15T05:20:02.171Z,99735.81
2022-09-15T05:22:29.826Z,99735.56
2022-09-15T05:24:56.294Z,99730.88
2022-09-15T05:27:22.845Z,99729.19
2022-09-15T05:29:49.205Z,99723.06
2022-09-15T05:32:15.554Z,99738.69
2022-09-15T05:34:41.931Z,99731.03
2022-09-15T05:37:08.272Z,99742.06
2022-09-15T05:39:35.975Z,99722.63
2022-09-15T05:42:02.322Z,99728.56
2022-09-15T05:44:28.681Z,99719.63
2022-09-15T05:46:55.196Z,99729.22
2022-09-15T05:49:21.548Z,99731.91
2022-09-15T05:51:47.878Z,99745.56
2022-09-15T05:54:14.257Z,99737.94
2022-09-15T05:56:41.918Z,99738.38
2022-09-15T05:59:08.411Z,99741.19
2022-09-15T06:01:34.806Z,99735.72
2022-09-15T06:04:01.484Z,99740.22
2022-09-15T06:06:27.892Z,99744.50
2022-09-15T06:08:58.445Z,99741.34
2022-09-15T06:11:27.742Z,99742.97
2022-09-15T06:13:58.407Z,99748.50
2022-09-15T06:16:25.027Z,99745.84
2022-09-15T06:18:53.110Z,99734.75
2022-09-15T06:21:22.345Z,99742.00
2022-09-15T06:23:52.918Z,99748.41
2022-09-15T06:26:19.407Z,99748.31
2022-09-15T06:28:48.791Z,99756.44
2022-09-15T06:31:17.035Z,99750.50
2022-09-15T06:33:44.976Z,99751.47
2022-09-15T06:36:11.825Z,99751.44
2022-09-15T06:38:38.423Z,99756.94
2022-09-15T06:41:05.850Z,99762.50
2022-09-15T06:43:33.410Z,99767.50
2022-09-15T06:46:04.918Z,99760.28
2022-09-15T06:48:32.648Z,99770.25
2022-09-15T06:50:59.758Z,99760.75
2022-09-15T06:53:28.691Z,99766.94
2022-09-15T06:55:55.228Z,99764.13
2022-09-15T06:58:21.715Z,99760.81
2022-09-15T07:00:48.075Z,99760.59
2022-09-15T07:03:14.625Z,99757.78
2022-09-15T07:05:43.385Z,99751.88
2022-09-15T07:08:09.728Z,99765.88
2022-09-15T07:10:36.261Z,99759.41
2022-09-15T07:13:02.631Z,99761.91
2022-09-15T07:15:29.169Z,99761.66
2022-09-15T07:17:55.512Z,99762.13
2022-09-15T07:20:21.944Z,99767.66
2022-09-15T07:22:49.671Z,99763.16
2022-09-15T07:25:16.231Z,99762.06
2022-09-15T07:27:42.580Z,99772.44
2022-09-15T07:30:09.974Z,99770.94
2022-09-15T07:32:36.332Z,99773.25
2022-09-15T07:35:03.891Z,99778.63
2022-09-15T07:37:30.223Z,99776.94
2022-09-15T07:39:57.955Z,99776.47
2022-09-15T07:42:24.366Z,99775.56
2022-09-15T07:44:50.800Z,99779.00
2022-09-15T07:47:17.262Z,99775.09
2022-09-15T07:49:43.740Z,99790.50
2022-09-15T07:52:10.078Z,99787.78
2022-09-15T07:54:36.468Z,99790.50
2022-09-15T07:57:04.469Z,99797.88
2022-09-15T07:59:30.832Z,99798.06
2022-09-15T08:01:57.251Z,99798.91
2022-09-15T08:04:23.815Z,99800.13
2022-09-15T08:06:50.201Z,99810.44
2022-09-15T08:09:16.535Z,99797.03
2022-09-15T08:11:43.356Z,99812.41
2022-09-15T08:14:11.042Z,99803.06
2022-09-15T08:16:38.413Z,99807.78
2022-09-15T08:19:05.103Z,99808.34
2022-09-15T08:21:31.440Z,99815.16
2022-09-15T08:23:59.767Z,99811.22
2022-09-15T08:26:27.799Z,99816.47
2022-09-15T08:28:54.312Z,99823.41
2022-09-15T08:31:22.393Z,99823.69
2022-09-15T08:33:50.315Z,99830.72
2022-09-15T08:36:17.062Z,99821.06
2022-09-15T08:38:45.268Z,99832.97
2022-09-15T08:41:16.277Z,99828.34
2022-09-15T08:43:47.913Z,99827.31
2022-09-15T08:46:20.407Z,99835.28
2022-09-15T08:48:59.585Z,99832.59
2022-09-15T08:51:34.377Z,99837.13
2022-09-15T08:54:05.482Z,99839.00
2022-09-15T08:56:31.894Z,99836.09
2022-09-15T08:58:58.404Z,99830.19
2022-09-15T09:01:40.808Z,99824.53
2022-09-15T09:04:31.963Z,99837.56
2022-09-15T09:07:10.715Z,99838.25
2022-09-15T09:09:44.911Z,99840.25
2022-09-15T09:12:28.532Z,99839.59
2022-09-15T09:15:07.663Z,99834.97
2022-09-15T09:17:56.330Z,99829.16
2022-09-15T09:20:43.180Z,99827.78
2022-09-15T09:23:12.621Z,99828.00
2022-09-15T09:25:40.603Z,99820.91
2022-09-15T09:28:22.760Z,99821.94
2022-09-15T09:30:49.250Z,99826.91
2022-09-15T09:33:25.271Z,99821.69
2022-09-15T09:35:53.128Z,99821.47
2022-09-15T09:38:24.839Z,99822.16
2022-09-15T09:40:51.703Z,99826.38
2022-09-15T09:43:18.335Z,99814.97
2022-09-15T09:45:44.803Z,99817.13
2022-09-15T09:48:15.368Z,99820.88
2022-09-15T09:50:42.616Z,99827.69
2022-09-15T09:53:25.374Z,99820.28
2022-09-15T09:55:52.464Z,99818.31
2022-09-15T09:58:21.215Z,99826.38
2022-09-15T10:00:48.572Z,99819.94
2022-09-15T10:03:16.655Z,99819.03
2022-09-15T10:05:45.050Z,99816.09
2022-09-15T10:08:16.551Z,99818.94
2022-09-15T10:10:52.540Z,99817.31
2022-09-15T10:13:19.448Z,99808.69
2022-09-15T10:15:51.564Z,99789.38
2022-09-15T10:18:33.928Z,99798.94
2022-09-15T10:21:02.586Z,99796.72
2022-09-15T10:23:31.046Z,99798.78
2022-09-15T10:26:20.213Z,99809.66
2022-09-15T10:29:12.969Z,99797.41
2022-09-15T10:31:40.520Z,99796.28
2022-09-15T10:34:27.006Z,99796.97
2022-09-15T10:36:58.578Z,99807.25
2022-09-15T10:39:35.779Z,99802.47
2022-09-15T10:42:12.952Z,99793.78
2022-09-15T10:44:49.844Z,99800.69
2022-09-15T10:47:27.405Z,99801.31
2022-09-15T10:50:11.243Z,99794.91
2022-09-15T10:52:51.770Z,99795.31
2022-09-15T10:55:48.843Z,99804.31
2022-09-15T10:58:30.180Z,99801.59
2022-09-15T11:01:06.507Z,99797.19
2022-09-15T11:04:06.220Z,99797.47
2022-09-15T11:06:41.228Z,99793.69
2022-09-15T11:09:16.832Z,99796.91
2022-09-15T11:11:57.384Z,99805.75
2022-09-15T11:14:53.659Z,99797.66
2022-09-15T11:17:30.889Z,99801.34
2022-09-15T11:20:20.716Z,99792.66
2022-09-15T11:22:52.808Z,99807.22
2022-09-15T11:25:22.825Z,99803.41
2022-09-15T11:27:53.338Z,99804.59
2022-09-15T11:30:23.729Z,99797.59
2022-09-15T11:32:58.761Z,99798.41
2022-09-15T11:35:33.268Z,99792.31
2022-09-15T11:38:12.971Z,99791.06
2022-09-15T11:40:46.120Z,99789.78
2022-09-15T11:43:17.931Z,99792.28
2022-09-15T11:45:50.361Z,99809.41
2022-09-15T11:48:22.396Z,99809.72
2022-09-15T11:50:53.357Z,99811.31
2022-09-15T11:53:27.742Z,99812.22
2022-09-15T11:56:00.960Z,99813.72
2022-09-15T11:58:33.732Z,99825.19
2022-09-15T12:01:06.987Z,99830.75
2022-09-15T12:03:38.916Z,99824.59
2022-09-15T12:06:09.709Z,99834.19
2022-09-15T12:08:40.535Z,99825.09
2022-09-15T12:11:11.701Z,99825.94
2022-09-15T12:13:41.014Z,99835.38
2022-09-15T12:16:09.735Z,99843.03
2022-09-15T12:18:43.759Z,99841.19
2022-09-15T12:21:17.149Z,99858.94
2022-09-15T12:23:48.271Z,99861.47
2022-09-15T12:26:17.666Z,99850.00
2022-09-15T12:28:55.958Z,99848.63
2022-09-15T12:31:44.808Z,99847.03
2022-09-15T12:34:34.398Z,99847.44
2022-09-15T12:37:08.507Z,99857.75
2022-09-15T12:39:40.850Z,99855.75
2022-09-15T12:42:14.044Z,99849.72
2022-09-15T12:44:43.169Z,99840.63
2022-09-15T12:47:20.677Z,99843.09
2022-09-15T12:49:49.876Z,99835.03
2022-09-15T12:52:19.008Z,99846.31
2022-09-15T12:54:53.228Z,99842.63
2022-09-15T12:57:24.439Z,99845.88
2022-09-15T13:00:31.843Z,99843.34
2022-09-15T13:03:00.352Z,99843.88
2022-09-15T13:05:54.152Z,99838.00
2022-09-15T13:08:44.249Z,99828.16
2022-09-15T13:11:15.014Z,99832.56
2022-09-15T13:13:45.561Z,99837.69
2022-09-15T13:16:16.713Z,99835.19
2022-09-15T13:18:46.841Z,99845.22
2022-09-15T13:21:21.443Z,99844.41
2022-09-15T13:23:51.644Z,99846.81
2022-09-15T13:26:24.820Z,99838.00
2022-09-15T13:28:55.683Z,99846.59
2022-09-15T13:31:34.365Z,99831.75
2022-09-15T13:40:52.238Z,99827.25
2022-09-15T13:43:48.911Z,99815.50
2022-09-15T13:46:27.787Z,99819.56
2022-09-15T13:49:14.845Z,99821.19
2022-09-15T13:51:46.950Z,99816.25
2022-09-15T13:54:17.491Z,99822.81
2022-09-15T13:56:44.303Z,99818.97
2022-09-15T13:59:18.138Z,99808.81
2022-09-15T14:01:45.426Z,99808.44
2022-09-15T14:04:15.857Z,99814.56
2022-09-15T14:06:45.689Z,99820.81
2022-09-15T14:09:16.785Z,99808.50
2022-09-15T14:11:47.222Z,99804.00
2022-09-15T14:14:32.047Z,99804.03
2022-09-15T14:17:00.988Z,99797.13
2022-09-15T14:19:34.291Z,99796.72
2022-09-15T14:22:02.187Z,99799.56
2022-09-15T14:24:30.476Z,99794.34
2022-09-15T14:27:00.184Z,99799.78
2022-09-15T14:29:27.233Z,99797.81
2022-09-15T14:31:59.026Z,99803.91
2022-09-15T14:34:29.837Z,99794.06
2022-09-15T14:37:02.322Z,99792.69
2022-09-15T14:39:29.778Z,99793.69
2022-09-15T14:41:56.668Z,99795.53
2022-09-15T14:47:19.573Z,99811.31
2022-09-15T14:49:46.044Z,99799.53
2022-09-15T14:52:25.684Z,99802.75
2022-09-15T14:54:57.527Z,99799.38
2022-09-15T14:57:30.889Z,99810.25
2022-09-15T15:00:01.285Z,99805.34
2022-09-15T15:02:35.167Z,99802.09
2022-09-15T15:05:07.942Z,99812.25
2022-09-15T15:07:37.596Z,99820.59
2022-09-15T15:10:07.298Z,99822.88
2022-09-15T15:12:35.872Z,99830.06
2022-09-15T15:15:03.161Z,99810.56
2022-09-15T15:17:34.826Z,99803.28
2022-09-15T15:20:12.295Z,99809.69
2022-09-15T15:22:41.429Z,99808.00
2022-09-15T15:25:22.560Z,99813.06
2022-09-15T15:27:51.328Z,99818.59
2022-09-15T15:30:45.685Z,99827.16
2022-09-15T15:33:19.795Z,99824.41
2022-09-15T15:35:46.995Z,99830.66
2022-09-15T15:38:16.939Z,99825.63
2022-09-15T15:40:44.715Z,99836.28
2022-09-15T15:43:22.683Z,99822.94
2022-09-15T15:45:51.133Z,99818.66
2022-09-15T15:48:17.479Z,99827.31
2022-09-15T15:50:43.844Z,99819.66
2022-09-15T15:53:10.201Z,99825.28
2022-09-15T15:55:40.359Z,99822.72
2022-09-15T15:58:08.653Z,99827.91
2022-09-15T16:00:38.602Z,99831.75
2022-09-15T16:03:05.798Z,99826.59
2022-09-15T16:05:33.542Z,99829.47
2022-09-15T16:08:03.242Z,99829.03
2022-09-15T16:10:38.334Z,99836.50
2022-09-15T16:13:06.123Z,99831.09
2022-09-15T16:15:32.557Z,99828.53
2022-09-15T16:17:59.081Z,99831.47
2022-09-15T16:20:25.432Z,99827.72
2022-09-15T16:22:52.134Z,99835.00
2022-09-15T16:25:27.008Z,99830.34
2022-09-15T16:27:53.348Z,99831.84
2022-09-15T16:30:21.454Z,99832.59
2022-09-15T16:32:47.812Z,99832.22
2022-09-15T16:35:24.110Z,99823.44
2022-09-15T16:37:50.454Z,99822.22
2022-09-15T16:40:16.960Z,99829.47
2022-09-15T16:42:43.711Z,99829.56
2022-09-15T16:45:18.753Z,99837.31
2022-09-15T16:47:46.631Z,99831.94
2022-09-15T16:50:13.036Z,99824.09
2022-09-15T16:52:39.468Z,99827.38
2022-09-15T16:55:18.855Z,99828.31
2022-09-15T16:57:45.285Z,99828.63
2022-09-15T17:00:13.303Z,99822.03
2022-09-15T17:02:40.928Z,99826.84
2022-09-15T17:05:16.151Z,99825.41
2022-09-15T17:07:42.499Z,99825.16
2022-09-15T17:10:09.182Z,99828.75
2022-09-15T17:12:36.646Z,99820.41
2022-09-15T17:15:17.786Z,99825.28
2022-09-15T17:17:44.167Z,99825.94
2022-09-15T17:20:11.947Z,99823.91
2022-09-15T17:22:38.307Z,99823.22
2022-09-15T17:25:17.971Z,99833.38
2022-09-15T17:27:44.376Z,99835.94
2022-09-15T17:30:12.465Z,99843.13
2022-09-15T17:32:38.925Z,99854.00
2022-09-15T17:35:15.432Z,99855.38
2022-09-15T17:37:41.812Z,99857.78
2022-09-15T17:40:08.996Z,99858.59
2022-09-15T17:42:35.428Z,99866.81
2022-09-15T17:45:02.069Z,99856.44
2022-09-15T17:47:28.427Z,99856.34
2022-09-15T17:49:54.759Z,99865.19
2022-09-15T17:52:22.437Z,99860.31
2022-09-15T17:54:48.849Z,99865.03
2022-09-15T17:57:15.236Z,99865.91
2022-09-15T17:59:41.621Z,99870.72
2022-09-15T18:02:17.015Z,99873.44
2022-09-15T18:04:43.406Z,99869.03
2022-09-15T18:07:09.742Z,99880.28
2022-09-15T18:09:37.462Z,99882.84
2022-09-15T18:12:04.281Z,99870.00
2022-09-15T18:14:30.737Z,99884.63
2022-09-15T18:16:57.106Z,99879.25
2022-09-15T18:19:23.484Z,99878.56
2022-09-15T18:21:53.632Z,99880.03
2022-09-15T18:24:19.990Z,99874.34
2022-09-15T18:26:47.754Z,99889.72
2022-09-15T18:29:14.145Z,99892.66
2022-09-15T18:31:40.554Z,99888.94
2022-09-15T18:34:06.915Z,99894.19
2022-09-15T18:36:33.382Z,99900.09
2022-09-15T18:38:59.815Z,99905.25
2022-09-15T18:41:26.333Z,99906.91
2022-09-15T18:43:54.159Z,99909.47
2022-09-15T18:46:20.651Z,99913.91
2022-09-15T18:48:47.258Z,99906.22
2022-09-15T18:51:19.672Z,99909.50
2022-09-15T18:53:53.987Z,99907.41
2022-09-15T18:56:20.982Z,99909.81
2022-09-15T18:58:47.344Z,99908.38
2022-09-15T19:01:15.187Z,99916.22
2022-09-15T19:03:43.849Z,99922.28
2022-09-15T19:06:10.614Z,99916.81
2022-09-15T19:08:37.046Z,99908.16
2022-09-15T19:11:04.072Z,99913.31
2022-09-15T19:13:30.470Z,99913.88
2022-09-15T19:16:02.727Z,99916.25
2022-09-15T19:18:30.427Z,99915.88
2022-09-15T19:21:03.760Z,99915.13
2022-09-15T19:23:30.124Z,99921.38
2022-09-15T19:25:56.450Z,99923.59
2022-09-15T19:28:22.977Z,99921.06
2022-09-15T19:30:49.355Z,99924.56
2022-09-15T19:33:15.805Z,99925.00
2022-09-15T19:35:43.501Z,99925.63
2022-09-15T19:38:09.861Z,99921.09
2022-09-15T19:40:36.270Z,99918.66
2022-09-15T19:43:02.739Z,99921.41
2022-09-15T19:45:29.120Z,99916.94
2022-09-15T19:47:55.465Z,99930.63
2022-09-15T19:50:22.761Z,99920.97
2022-09-15T19:52:50.450Z,99931.91
2022-09-15T19:55:16.936Z,99931.78
2022-09-15T19:57:43.398Z,99933.06
2022-09-15T20:00:11.873Z,99931.97
2022-09-15T20:02:38.651Z,99930.28
2022-09-15T20:05:06.349Z,99936.03
2022-09-15T20:07:33.225Z,99933.50
2022-09-15T20:10:00.939Z,99932.94
2022-09-15T20:12:27.312Z,99938.72
2022-09-15T20:14:53.690Z,99942.97
2022-09-15T20:17:20.136Z,99943.19
2022-09-15T20:19:46.621Z,99944.69
2022-09-15T20:22:13.246Z,99945.81
2022-09-15T20:24:40.025Z,99944.97
2022-09-15T20:27:07.880Z,99944.09
2022-09-15T20:29:34.493Z,99948.25
2022-09-15T20:32:00.968Z,99944.53
2022-09-15T20:34:27.997Z,99944.97
2022-09-15T20:36:54.321Z,99946.63
2022-09-15T20:39:20.680Z,99947.22
2022-09-15T20:41:47.052Z,99947.50
2022-09-15T20:44:15.107Z,99955.75
2022-09-15T20:46:42.206Z,99949.84
2022-09-15T20:49:10.439Z,99949.88
2022-09-15T20:51:36.832Z,99949.75
2022-09-15T20:54:04.368Z,99947.69
2022-09-15T20:56:32.595Z,99943.97
2022-09-15T20:59:00.338Z,99941.97
2022-09-15T21:01:29.429Z,99948.84
2022-09-15T21:03:56.034Z,99947.84
2022-09-15T21:06:23.791Z,99945.41
2022-09-15T21:08:50.609Z,99950.28
2022-09-15T21:11:19.351Z,99948.03
2022-09-15T21:13:48.118Z,99947.84
2022-09-15T21:16:16.184Z,99953.00
2022-09-15T21:18:44.935Z,99949.25
2022-09-15T21:21:14.356Z,99954.16
2022-09-15T21:23:42.860Z,99959.78
2022-09-15T21:26:11.354Z,99957.94
2022-09-15T21:28:37.879Z,99960.53
2022-09-15T21:31:06.046Z,99954.25
2022-09-15T21:33:32.491Z,99966.06
2022-09-15T21:36:04.847Z,99968.13
2022-09-15T21:38:31.189Z,99960.03
2022-09-15T21:40:57.694Z,99965.75
2022-09-15T21:43:24.239Z,99964.50
2022-09-15T21:45:54.675Z,99970.94
2022-09-15T21:48:21.127Z,99967.69
2022-09-15T21:50:49.804Z,99965.31
2022-09-15T21:53:17.724Z,99972.41
2022-09-15T21:55:44.060Z,99972.75
2022-09-15T21:58:10.395Z,99971.53
2022-09-15T22:00:36.811Z,99978.47
2022-09-15T22:03:03.229Z,99976.03
2022-09-15T22:05:29.572Z,99969.44
2022-09-15T22:07:55.920Z,99982.44
2022-09-15T22:10:23.624Z,99974.84
2022-09-15T22:12:51.667Z,99973.44
2022-09-15T22:15:18.530Z,99978.38
2022-09-15T22:17:44.912Z,99981.03
2022-09-15T22:20:11.305Z,99980.97
2022-09-15T22:22:37.640Z,99979.41
2022-09-15T22:25:04.523Z,99978.53
2022-09-15T22:27:32.199Z,99982.19
2022-09-15T22:29:58.552Z,99984.63
2022-09-15T22:32:24.999Z,99985.59
2022-09-15T22:34:51.361Z,99986.28
2022-09-15T22:37:17.711Z,99984.84
2022-09-15T22:39:58.387Z,99988.13
2022-09-15T22:42:25.788Z,99982.03
2022-09-15T22:44:53.750Z,99981.13
2022-09-15T22:47:20.087Z,99986.22
2022-09-15T22:49:46.465Z,99980.44
2022-09-15T22:52:12.823Z,99986.75
2022-09-15T22:54:39.191Z,99988.13
2022-09-15T22:57:05.599Z,99989.59
2022-09-15T22:59:31.951Z,99984.59
2022-09-15T23:01:59.703Z,99980.28
2022-09-15T23:04:26.340Z,99986.34
2022-09-15T23:06:52.884Z,99991.75
2022-09-15T23:09:19.232Z,99989.63
2022-09-15T23:11:45.575Z,99993.19
2022-09-15T23:14:13.843Z,99985.91
2022-09-15T23:16:40.433Z,99981.06
2022-09-15T23:19:08.232Z,99986.44
2022-09-15T23:21:34.616Z,99983.41
2022-09-15T23:24:01.377Z,99977.03
2022-09-15T23:26:27.792Z,99977.38
2022-09-15T23:28:54.731Z,99978.59
2022-09-15T23:31:21.239Z,99980.75
2022-09-15T23:33:47.719Z,99981.47
2022-09-15T23:36:17.595Z,99975.53
2022-09-15T23:38:45.319Z,99969.94
2022-09-15T23:41:13.376Z,99971.34
2022-09-15T23:43:39.820Z,99967.75
2022-09-15T23:46:06.392Z,99964.38
2022-09-15T23:48:32.888Z,99963.41
2022-09-15T23:51:00.010Z,99960.50
2022-09-15T23:53:28.133Z,99979.16
2022-09-15T23:55:54.581Z,99971.72
2022-09-15T23:58:20.996Z,99977.91
